QFA26 YSSY-RJTT
Flight info
| Callsign | QFA26 |
|---|---|
| Flight time | N/A |
| Altitude | 39000 |
| Route | RIC H530 LASUD Q238 SGE/N0492F360 Q238 DUPUG/N0491F350 Q141 ESKUT/N0496F360 Q141 OVRON DCT 1444S14818E 1200S14744E DCT PY B586 PIKOK DCT 0257N14512E/N0494F380 0805N14335E 1200N14231E 1510N14151E 2032N14104E 2100N14102E 2629N14041E UKATA B586 CADDY/N0482F390 T871 TOPIT Y875 AROSA |
| Aircraft | A388/J-SADE2E3FGHIJ3J4J5M1RWXY/LB1D1 |
Departure
| Time | 2026-04-26 10:36 |
|---|---|
| Airport | Sydney Kingsford Smith International Airport (YSSY) |
Arrival
| Time | N/A |
|---|---|
| Airport | Tokyo Haneda International Airport (RJTT) |
| Time | Latitude | Longitude | Altitude | Speed | Heading |
|---|---|---|---|---|---|
| 2026-04-26 09:51 | -33.93477 | 151.16802 | 35 ft | 0 kts | 258° |
| 2026-04-26 10:14 | -33.93475 | 151.16814 | 13 ft | 4 kts | 258° |
| 2026-04-26 10:15 | -33.93470 | 151.16846 | 33 ft | 4 kts | 258° |
| 2026-04-26 10:15 | -33.93465 | 151.16871 | 31 ft | 4 kts | 247° |
| 2026-04-26 10:15 | -33.93450 | 151.16895 | 32 ft | 4 kts | 204° |
| 2026-04-26 10:15 | -33.93426 | 151.16899 | 33 ft | 3 kts | 167° |
| 2026-04-26 10:16 | -33.93401 | 151.16892 | 34 ft | 4 kts | 169° |
| 2026-04-26 10:16 | -33.93374 | 151.16886 | 35 ft | 4 kts | 169° |
| 2026-04-26 10:16 | -33.93350 | 151.16881 | 35 ft | 1 kts | 167° |
| 2026-04-26 10:16 | -33.93350 | 151.16880 | 35 ft | 0 kts | 167° |
| 2026-04-26 10:22 | -33.93353 | 151.16881 | 34 ft | 2 kts | 167° |
| 2026-04-26 10:22 | -33.93379 | 151.16888 | 33 ft | 6 kts | 167° |
| 2026-04-26 10:22 | -33.93436 | 151.16903 | 33 ft | 11 kts | 167° |
| 2026-04-26 10:22 | -33.93497 | 151.16954 | 35 ft | 12 kts | 112° |
| 2026-04-26 10:23 | -33.93503 | 151.17045 | 35 ft | 11 kts | 115° |
| 2026-04-26 10:23 | -33.93559 | 151.17114 | 34 ft | 12 kts | 163° |
| 2026-04-26 10:23 | -33.93654 | 151.17141 | 34 ft | 16 kts | 167° |
| 2026-04-26 10:23 | -33.93776 | 151.17174 | 34 ft | 20 kts | 167° |
| 2026-04-26 10:24 | -33.93920 | 151.17213 | 34 ft | 22 kts | 167° |
| 2026-04-26 10:24 | -33.94075 | 151.17255 | 34 ft | 23 kts | 167° |
| 2026-04-26 10:24 | -33.94236 | 151.17297 | 34 ft | 24 kts | 168° |
| 2026-04-26 10:24 | -33.94393 | 151.17337 | 35 ft | 23 kts | 168° |
| 2026-04-26 10:25 | -33.94553 | 151.17377 | 35 ft | 24 kts | 168° |
| 2026-04-26 10:25 | -33.94719 | 151.17418 | 35 ft | 25 kts | 168° |
| 2026-04-26 10:25 | -33.94891 | 151.17461 | 34 ft | 25 kts | 168° |
| 2026-04-26 10:25 | -33.95065 | 151.17505 | 34 ft | 25 kts | 168° |
| 2026-04-26 10:26 | -33.95239 | 151.17549 | 34 ft | 26 kts | 168° |
| 2026-04-26 10:26 | -33.95391 | 151.17587 | 34 ft | 22 kts | 168° |
| 2026-04-26 10:26 | -33.95543 | 151.17626 | 35 ft | 23 kts | 168° |
| 2026-04-26 10:26 | -33.95700 | 151.17666 | 35 ft | 23 kts | 168° |
| 2026-04-26 10:27 | -33.95860 | 151.17711 | 35 ft | 24 kts | 166° |
| 2026-04-26 10:27 | -33.96023 | 151.17758 | 35 ft | 25 kts | 166° |
| 2026-04-26 10:27 | -33.96191 | 151.17805 | 35 ft | 25 kts | 168° |
| 2026-04-26 10:27 | -33.96361 | 151.17845 | 35 ft | 23 kts | 165° |
| 2026-04-26 10:28 | -33.96424 | 151.17909 | 35 ft | 0 kts | 94° |
| 2026-04-26 10:33 | -33.96425 | 151.17931 | 35 ft | 4 kts | 94° |
| 2026-04-26 10:34 | -33.96425 | 151.17980 | 35 ft | 7 kts | 86° |
| 2026-04-26 10:34 | -33.96411 | 151.18031 | 35 ft | 6 kts | 45° |
| 2026-04-26 10:34 | -33.96379 | 151.18051 | 35 ft | 5 kts | 5° |
| 2026-04-26 10:34 | -33.96360 | 151.18049 | 35 ft | 0 kts | 349° |
| 2026-04-26 10:35 | -33.96340 | 151.18045 | 34 ft | 20 kts | 349° |
| 2026-04-26 10:35 | -33.95953 | 151.17945 | 33 ft | 92 kts | 348° |
| 2026-04-26 10:35 | -33.95137 | 151.17737 | 33 ft | 144 kts | 348° |
| 2026-04-26 10:35 | -33.94058 | 151.17469 | 144 ft | 166 kts | 349° |
| 2026-04-26 10:36 | -33.92911 | 151.17169 | 544 ft | 172 kts | 349° |
| 2026-04-26 10:36 | -33.91717 | 151.16852 | 851 ft | 181 kts | 349° |
| 2026-04-26 10:36 | -33.90497 | 151.16356 | 1080 ft | 192 kts | 334° |
| 2026-04-26 10:36 | -33.89478 | 151.15274 | 1515 ft | 196 kts | 308° |
| 2026-04-26 10:37 | -33.88787 | 151.13941 | 2361 ft | 191 kts | 304° |
| 2026-04-26 10:37 | -33.88010 | 151.12550 | 2724 ft | 210 kts | 309° |
| 2026-04-26 10:37 | -33.87054 | 151.11133 | 3112 ft | 226 kts | 313° |
| 2026-04-26 10:37 | -33.85944 | 151.09680 | 3431 ft | 245 kts | 315° |
| 2026-04-26 10:38 | -33.84717 | 151.08163 | 3837 ft | 258 kts | 315° |
| 2026-04-26 10:38 | -33.83438 | 151.06608 | 4466 ft | 264 kts | 315° |
| 2026-04-26 10:38 | -33.82142 | 151.05031 | 5143 ft | 267 kts | 314° |
| 2026-04-26 10:38 | -33.80828 | 151.03429 | 5702 ft | 275 kts | 314° |
| 2026-04-26 10:39 | -33.79472 | 151.01771 | 6332 ft | 279 kts | 314° |
| 2026-04-26 10:39 | -33.78125 | 151.00119 | 6956 ft | 283 kts | 314° |
| 2026-04-26 10:39 | -33.76739 | 150.98423 | 7584 ft | 286 kts | 314° |
| 2026-04-26 10:39 | -33.75346 | 150.96719 | 8271 ft | 286 kts | 315° |
| 2026-04-26 10:40 | -33.73943 | 150.95004 | 8939 ft | 289 kts | 315° |
| 2026-04-26 10:40 | -33.72527 | 150.93275 | 9562 ft | 291 kts | 315° |
| 2026-04-26 10:40 | -33.71101 | 150.91535 | 10210 ft | 294 kts | 315° |
| 2026-04-26 10:40 | -33.69652 | 150.89768 | 10618 ft | 304 kts | 315° |
| 2026-04-26 10:41 | -33.68122 | 150.87906 | 10782 ft | 322 kts | 315° |
| 2026-04-26 10:41 | -33.66509 | 150.85940 | 10931 ft | 338 kts | 315° |
| 2026-04-26 10:41 | -33.64831 | 150.83897 | 11278 ft | 346 kts | 315° |
| 2026-04-26 10:41 | -33.63160 | 150.81863 | 11845 ft | 349 kts | 315° |
| 2026-04-26 10:42 | -33.61450 | 150.79781 | 12367 ft | 352 kts | 315° |
| 2026-04-26 10:42 | -33.59728 | 150.77687 | 12919 ft | 354 kts | 315° |
| 2026-04-26 10:42 | -33.57978 | 150.75597 | 13470 ft | 356 kts | 316° |
| 2026-04-26 10:42 | -33.56187 | 150.73526 | 14006 ft | 359 kts | 316° |
| 2026-04-26 10:43 | -33.54378 | 150.71449 | 14480 ft | 362 kts | 316° |
| 2026-04-26 10:43 | -33.52550 | 150.69346 | 14946 ft | 365 kts | 316° |
| 2026-04-26 10:43 | -33.50717 | 150.67231 | 15415 ft | 368 kts | 316° |
| 2026-04-26 10:43 | -33.48872 | 150.65099 | 15887 ft | 370 kts | 316° |
| 2026-04-26 10:44 | -33.47033 | 150.62972 | 16339 ft | 373 kts | 316° |
| 2026-04-26 10:44 | -33.45160 | 150.60807 | 16804 ft | 376 kts | 316° |
| 2026-04-26 10:44 | -33.43272 | 150.58625 | 17254 ft | 379 kts | 316° |
| 2026-04-26 10:44 | -33.41373 | 150.56432 | 17700 ft | 382 kts | 316° |
| 2026-04-26 10:45 | -33.39450 | 150.54213 | 18147 ft | 384 kts | 316° |
| 2026-04-26 10:45 | -33.37520 | 150.51987 | 18577 ft | 387 kts | 316° |
| 2026-04-26 10:45 | -33.35577 | 150.49748 | 18970 ft | 389 kts | 316° |
| 2026-04-26 10:45 | -33.33617 | 150.47490 | 19358 ft | 391 kts | 316° |
| 2026-04-26 10:46 | -33.31651 | 150.45228 | 19740 ft | 393 kts | 316° |
| 2026-04-26 10:46 | -33.29702 | 150.42986 | 20118 ft | 395 kts | 317° |
| 2026-04-26 10:46 | -33.27714 | 150.40700 | 20487 ft | 398 kts | 317° |
| 2026-04-26 10:46 | -33.25713 | 150.38403 | 20857 ft | 400 kts | 317° |
| 2026-04-26 10:47 | -33.23704 | 150.36097 | 21220 ft | 402 kts | 317° |
| 2026-04-26 10:47 | -33.21687 | 150.33782 | 21580 ft | 404 kts | 317° |
| 2026-04-26 10:47 | -33.19653 | 150.31451 | 21936 ft | 407 kts | 317° |
| 2026-04-26 10:47 | -33.17606 | 150.29106 | 22289 ft | 409 kts | 317° |
| 2026-04-26 10:48 | -33.15549 | 150.26752 | 22657 ft | 411 kts | 317° |
| 2026-04-26 10:48 | -33.13505 | 150.24413 | 23011 ft | 413 kts | 317° |
| 2026-04-26 10:48 | -33.11431 | 150.22042 | 23360 ft | 415 kts | 317° |
| 2026-04-26 10:48 | -33.09334 | 150.19647 | 23705 ft | 417 kts | 317° |
| 2026-04-26 10:49 | -33.07232 | 150.17247 | 24019 ft | 420 kts | 317° |
| 2026-04-26 10:49 | -33.05123 | 150.14842 | 24371 ft | 420 kts | 317° |
| 2026-04-26 10:49 | -33.03010 | 150.12433 | 24647 ft | 422 kts | 317° |
| 2026-04-26 10:49 | -33.00882 | 150.10009 | 24927 ft | 424 kts | 317° |
| 2026-04-26 10:50 | -32.98743 | 150.07573 | 25227 ft | 426 kts | 317° |
| 2026-04-26 10:50 | -32.97324 | 150.05959 | 25425 ft | 427 kts | 317° |
| 2026-04-26 10:50 | -32.94445 | 150.02685 | 25832 ft | 430 kts | 316° |
| 2026-04-26 10:50 | -32.92305 | 150.00255 | 26146 ft | 432 kts | 316° |
| 2026-04-26 10:51 | -32.90128 | 149.97783 | 26481 ft | 434 kts | 316° |
| 2026-04-26 10:51 | -32.85728 | 149.92794 | 27098 ft | 439 kts | 316° |
| 2026-04-26 10:51 | -32.83512 | 149.90283 | 27407 ft | 442 kts | 316° |
| 2026-04-26 10:52 | -32.81281 | 149.87758 | 27767 ft | 444 kts | 316° |
| 2026-04-26 10:52 | -32.80422 | 149.86786 | 27906 ft | 445 kts | 316° |
| 2026-04-26 10:52 | -32.79121 | 149.85313 | 28094 ft | 447 kts | 316° |
| 2026-04-26 10:52 | -32.76894 | 149.82795 | 28412 ft | 449 kts | 316° |
| 2026-04-26 10:53 | -32.74621 | 149.80228 | 28796 ft | 451 kts | 316° |
| 2026-04-26 10:53 | -32.72339 | 149.77654 | 29125 ft | 454 kts | 316° |
| 2026-04-26 10:53 | -32.70038 | 149.75060 | 29480 ft | 457 kts | 316° |
| 2026-04-26 10:54 | -32.65402 | 149.69838 | 30170 ft | 462 kts | 316° |
| 2026-04-26 10:54 | -32.63060 | 149.67204 | 30492 ft | 465 kts | 316° |
| 2026-04-26 10:54 | -32.60709 | 149.64560 | 30835 ft | 466 kts | 316° |
| 2026-04-26 10:54 | -32.58374 | 149.61936 | 31153 ft | 468 kts | 316° |
| 2026-04-26 10:55 | -32.56042 | 149.59237 | 31449 ft | 470 kts | 312° |
| 2026-04-26 10:55 | -32.53925 | 149.56268 | 31710 ft | 472 kts | 308° |
| 2026-04-26 10:55 | -32.51857 | 149.53237 | 32061 ft | 473 kts | 308° |
| 2026-04-26 10:55 | -32.50456 | 149.51197 | 32282 ft | 474 kts | 308° |
| 2026-04-26 10:56 | -32.47684 | 149.47181 | 32713 ft | 475 kts | 308° |
| 2026-04-26 10:56 | -32.45590 | 149.44152 | 33048 ft | 476 kts | 308° |
| 2026-04-26 10:56 | -32.43485 | 149.41110 | 33379 ft | 478 kts | 308° |
| 2026-04-26 10:56 | -32.41374 | 149.38062 | 33701 ft | 479 kts | 308° |
| 2026-04-26 10:57 | -32.39281 | 149.35041 | 34035 ft | 480 kts | 308° |
| 2026-04-26 10:57 | -32.37156 | 149.31977 | 34335 ft | 482 kts | 308° |
| 2026-04-26 10:57 | -32.35027 | 149.28909 | 34601 ft | 483 kts | 308° |
| 2026-04-26 10:57 | -32.32879 | 149.25816 | 34892 ft | 484 kts | 308° |
| 2026-04-26 10:58 | -32.30740 | 149.22739 | 35262 ft | 483 kts | 308° |
| 2026-04-26 10:58 | -32.28610 | 149.19678 | 35663 ft | 482 kts | 308° |
| 2026-04-26 10:58 | -32.26481 | 149.16620 | 36032 ft | 481 kts | 308° |
| 2026-04-26 10:58 | -32.24361 | 149.13577 | 36407 ft | 479 kts | 308° |
| 2026-04-26 10:59 | -32.22269 | 149.10579 | 36759 ft | 478 kts | 309° |
| 2026-04-26 10:59 | -32.20154 | 149.07547 | 37116 ft | 477 kts | 309° |
| 2026-04-26 10:59 | -32.18042 | 149.04524 | 37492 ft | 475 kts | 309° |
| 2026-04-26 10:59 | -32.15936 | 149.01511 | 37742 ft | 476 kts | 309° |
| 2026-04-26 11:00 | -32.13822 | 148.98488 | 37890 ft | 479 kts | 309° |
| 2026-04-26 11:00 | -32.11707 | 148.95468 | 38202 ft | 478 kts | 309° |
| 2026-04-26 11:00 | -32.09481 | 148.92558 | 38496 ft | 477 kts | 318° |
| 2026-04-26 11:00 | -32.06852 | 148.90184 | 38791 ft | 476 kts | 329° |
| 2026-04-26 11:01 | -32.03901 | 148.88437 | 39044 ft | 476 kts | 339° |
| 2026-04-26 11:01 | -32.00731 | 148.87361 | 39237 ft | 476 kts | 350° |
| 2026-04-26 11:01 | -31.98510 | 148.87030 | 39365 ft | 476 kts | 357° |
| 2026-04-26 11:01 | -31.95199 | 148.86825 | 39541 ft | 476 kts | 356° |
| 2026-04-26 11:02 | -31.91927 | 148.86597 | 39734 ft | 476 kts | 356° |
| 2026-04-26 11:02 | -31.88607 | 148.86353 | 39929 ft | 476 kts | 356° |
| 2026-04-26 11:02 | -31.85305 | 148.86110 | 40090 ft | 477 kts | 356° |
| 2026-04-26 11:02 | -31.81979 | 148.85867 | 40222 ft | 479 kts | 356° |
| 2026-04-26 11:03 | -31.75266 | 148.85380 | 40244 ft | 486 kts | 356° |
| 2026-04-26 11:03 | -31.68585 | 148.84901 | 40243 ft | 479 kts | 356° |
| 2026-04-26 11:04 | -31.61942 | 148.84424 | 40241 ft | 481 kts | 356° |
| 2026-04-26 11:04 | -31.55221 | 148.83942 | 40239 ft | 480 kts | 356° |
| 2026-04-26 11:05 | -31.48589 | 148.83467 | 40243 ft | 481 kts | 356° |
| 2026-04-26 11:05 | -31.41900 | 148.82988 | 40247 ft | 482 kts | 356° |
| 2026-04-26 11:06 | -31.35178 | 148.82509 | 40257 ft | 482 kts | 356° |
| 2026-04-26 11:06 | -31.28479 | 148.82032 | 40254 ft | 482 kts | 356° |
| 2026-04-26 11:07 | -31.21832 | 148.81558 | 40243 ft | 481 kts | 356° |
| 2026-04-26 11:07 | -31.15144 | 148.81083 | 40231 ft | 481 kts | 356° |
| 2026-04-26 11:08 | -31.08552 | 148.80615 | 40235 ft | 480 kts | 356° |
| 2026-04-26 11:08 | -31.01885 | 148.80142 | 40224 ft | 480 kts | 356° |
| 2026-04-26 11:09 | -30.95216 | 148.79670 | 40220 ft | 479 kts | 356° |
| 2026-04-26 11:09 | -30.88554 | 148.79199 | 40216 ft | 479 kts | 356° |
| 2026-04-26 11:10 | -30.81943 | 148.78732 | 40210 ft | 478 kts | 356° |
| 2026-04-26 11:10 | -30.75291 | 148.78263 | 40206 ft | 478 kts | 356° |
| 2026-04-26 11:11 | -30.68644 | 148.77795 | 40209 ft | 478 kts | 356° |
| 2026-04-26 11:11 | -30.62001 | 148.77328 | 40204 ft | 478 kts | 356° |
| 2026-04-26 11:12 | -30.55345 | 148.76861 | 40205 ft | 478 kts | 356° |
| 2026-04-26 11:12 | -30.48700 | 148.76395 | 40206 ft | 478 kts | 356° |
| 2026-04-26 11:13 | -30.42093 | 148.75933 | 40206 ft | 479 kts | 356° |
| 2026-04-26 11:13 | -30.35438 | 148.75467 | 40206 ft | 479 kts | 356° |
| 2026-04-26 11:14 | -30.28790 | 148.75003 | 40207 ft | 478 kts | 356° |
| 2026-04-26 11:14 | -30.22141 | 148.74540 | 40200 ft | 478 kts | 356° |
| 2026-04-26 11:15 | -30.15493 | 148.74078 | 40197 ft | 478 kts | 356° |
| 2026-04-26 11:15 | -30.08895 | 148.73620 | 40198 ft | 477 kts | 356° |
| 2026-04-26 11:16 | -30.02254 | 148.73158 | 40195 ft | 477 kts | 356° |
| 2026-04-26 11:16 | -29.95616 | 148.72698 | 40194 ft | 477 kts | 356° |
| 2026-04-26 11:17 | -29.89035 | 148.72243 | 40196 ft | 476 kts | 356° |
| 2026-04-26 11:17 | -29.82418 | 148.71785 | 40191 ft | 476 kts | 356° |
| 2026-04-26 11:18 | -29.75816 | 148.71329 | 40190 ft | 476 kts | 356° |
| 2026-04-26 11:18 | -29.69193 | 148.70873 | 40189 ft | 476 kts | 356° |
| 2026-04-26 11:19 | -29.62585 | 148.70418 | 40192 ft | 476 kts | 355° |
| 2026-04-26 11:19 | -29.55965 | 148.69963 | 40194 ft | 475 kts | 355° |
| 2026-04-26 11:20 | -29.50464 | 148.69585 | 40194 ft | 475 kts | 355° |
| 2026-04-26 11:20 | -29.42786 | 148.69058 | 40191 ft | 475 kts | 355° |
| 2026-04-26 11:21 | -29.36173 | 148.68605 | 40191 ft | 475 kts | 355° |
| 2026-04-26 11:21 | -29.29565 | 148.68153 | 40191 ft | 475 kts | 355° |
| 2026-04-26 11:22 | -29.22945 | 148.67700 | 40191 ft | 475 kts | 355° |
| 2026-04-26 11:22 | -29.16341 | 148.67250 | 40186 ft | 476 kts | 355° |
| 2026-04-26 11:23 | -29.09776 | 148.66803 | 40192 ft | 475 kts | 355° |
| 2026-04-26 11:23 | -29.03171 | 148.66353 | 40192 ft | 475 kts | 355° |
| 2026-04-26 11:24 | -28.96562 | 148.65904 | 40192 ft | 475 kts | 355° |
| 2026-04-26 11:24 | -28.89954 | 148.65455 | 40182 ft | 475 kts | 355° |
| 2026-04-26 11:25 | -28.83397 | 148.65010 | 40185 ft | 474 kts | 355° |
| 2026-04-26 11:25 | -28.76810 | 148.64564 | 40183 ft | 474 kts | 355° |
| 2026-04-26 11:26 | -28.70209 | 148.64117 | 40179 ft | 474 kts | 355° |
| 2026-04-26 11:26 | -28.63616 | 148.63672 | 40182 ft | 474 kts | 355° |
| 2026-04-26 11:27 | -28.57033 | 148.63228 | 40183 ft | 474 kts | 355° |
| 2026-04-26 11:27 | -28.50443 | 148.62784 | 40180 ft | 474 kts | 355° |
| 2026-04-26 11:28 | -28.43859 | 148.62340 | 40179 ft | 474 kts | 355° |
| 2026-04-26 11:28 | -28.37328 | 148.61902 | 40178 ft | 473 kts | 355° |
| 2026-04-26 11:29 | -28.30745 | 148.61459 | 40177 ft | 473 kts | 355° |
| 2026-04-26 11:29 | -28.24166 | 148.61018 | 40175 ft | 474 kts | 355° |
| 2026-04-26 11:30 | -28.18651 | 148.60649 | 40179 ft | 474 kts | 355° |
| 2026-04-26 11:30 | -28.11001 | 148.60138 | 40175 ft | 473 kts | 354° |
| 2026-04-26 11:31 | -28.04411 | 148.59697 | 40174 ft | 474 kts | 354° |
| 2026-04-26 11:31 | -27.97828 | 148.59257 | 40173 ft | 474 kts | 354° |
| 2026-04-26 11:32 | -27.91277 | 148.58821 | 40173 ft | 474 kts | 354° |
| 2026-04-26 11:32 | -27.84676 | 148.58382 | 40171 ft | 474 kts | 354° |
| 2026-04-26 11:33 | -27.78087 | 148.57944 | 40176 ft | 474 kts | 354° |
| 2026-04-26 11:33 | -27.71497 | 148.57506 | 40171 ft | 474 kts | 354° |
| 2026-04-26 11:34 | -27.64895 | 148.57068 | 40171 ft | 475 kts | 354° |
| 2026-04-26 11:34 | -27.58339 | 148.56635 | 40168 ft | 475 kts | 354° |
| 2026-04-26 11:35 | -27.51744 | 148.56199 | 40160 ft | 475 kts | 354° |
| 2026-04-26 11:35 | -27.46253 | 148.55835 | 40163 ft | 475 kts | 354° |
| 2026-04-26 11:36 | -27.38535 | 148.55326 | 40165 ft | 475 kts | 354° |
| 2026-04-26 11:36 | -27.31924 | 148.54891 | 40165 ft | 475 kts | 353° |
| 2026-04-26 11:37 | -27.25365 | 148.54459 | 40166 ft | 476 kts | 353° |
| 2026-04-26 11:37 | -27.18748 | 148.54023 | 40167 ft | 476 kts | 353° |
| 2026-04-26 11:38 | -27.12129 | 148.53589 | 40169 ft | 476 kts | 353° |
| 2026-04-26 11:38 | -27.05498 | 148.53155 | 40161 ft | 476 kts | 353° |
| 2026-04-26 11:39 | -26.98884 | 148.52721 | 40164 ft | 477 kts | 353° |
| 2026-04-26 11:39 | -26.92294 | 148.52289 | 40167 ft | 477 kts | 353° |
| 2026-04-26 11:40 | -26.85663 | 148.51856 | 40171 ft | 477 kts | 353° |
| 2026-04-26 11:40 | -26.79030 | 148.51423 | 40173 ft | 478 kts | 353° |
| 2026-04-26 11:42 | -26.52478 | 148.49695 | 40160 ft | 478 kts | 352° |
| 2026-04-26 11:43 | -26.45822 | 148.49263 | 40158 ft | 478 kts | 352° |
| 2026-04-26 11:43 | -26.39182 | 148.48832 | 40161 ft | 478 kts | 352° |
| 2026-04-26 11:44 | -26.32573 | 148.48404 | 40177 ft | 478 kts | 352° |
| 2026-04-26 11:44 | -26.25934 | 148.47976 | 40162 ft | 478 kts | 352° |
| 2026-04-26 11:45 | -26.19275 | 148.47549 | 40152 ft | 478 kts | 352° |
| 2026-04-26 11:45 | -26.12658 | 148.47119 | 40153 ft | 479 kts | 352° |
| 2026-04-26 11:46 | -26.05983 | 148.46736 | 40154 ft | 481 kts | 355° |
| 2026-04-26 11:46 | -25.99254 | 148.47239 | 40149 ft | 489 kts | 3° |
| 2026-04-26 11:47 | -25.92540 | 148.48633 | 40163 ft | 491 kts | 6° |
| 2026-04-26 11:47 | -25.85850 | 148.50036 | 40169 ft | 492 kts | 5° |
| 2026-04-26 11:48 | -25.79105 | 148.51439 | 40157 ft | 492 kts | 5° |
| 2026-04-26 11:48 | -25.73498 | 148.52605 | 40164 ft | 493 kts | 5° |
| 2026-04-26 11:49 | -25.66754 | 148.54006 | 40169 ft | 493 kts | 5° |
| 2026-04-26 11:49 | -25.59993 | 148.55409 | 40170 ft | 494 kts | 5° |
| 2026-04-26 11:50 | -25.53282 | 148.56801 | 40147 ft | 494 kts | 5° |
| 2026-04-26 11:50 | -25.46523 | 148.58201 | 40160 ft | 494 kts | 5° |
| 2026-04-26 11:51 | -25.39755 | 148.59601 | 40163 ft | 494 kts | 5° |
| 2026-04-26 11:51 | -25.32978 | 148.61001 | 40155 ft | 495 kts | 5° |
| 2026-04-26 11:52 | -25.26239 | 148.62392 | 40154 ft | 495 kts | 4° |
| 2026-04-26 11:52 | -25.19421 | 148.63797 | 40154 ft | 495 kts | 4° |
| 2026-04-26 11:53 | -25.12685 | 148.65184 | 40153 ft | 496 kts | 4° |
| 2026-04-26 11:54 | -25.02488 | 148.67281 | 40134 ft | 497 kts | 4° |
| 2026-04-26 11:54 | -24.95691 | 148.68677 | 40148 ft | 497 kts | 4° |
| 2026-04-26 11:55 | -24.88879 | 148.70074 | 40151 ft | 498 kts | 4° |
| 2026-04-26 11:55 | -24.82106 | 148.71461 | 40144 ft | 498 kts | 4° |
| 2026-04-26 11:56 | -24.75279 | 148.72859 | 40131 ft | 498 kts | 4° |
| 2026-04-26 11:56 | -24.68466 | 148.74251 | 40137 ft | 498 kts | 4° |
| 2026-04-26 11:57 | -24.61642 | 148.75644 | 40141 ft | 499 kts | 4° |
| 2026-04-26 11:57 | -24.54820 | 148.77036 | 40159 ft | 498 kts | 4° |
| 2026-04-26 11:58 | -24.48049 | 148.78416 | 40153 ft | 496 kts | 4° |
| 2026-04-26 11:58 | -24.41252 | 148.79800 | 40143 ft | 496 kts | 4° |
| 2026-04-26 11:59 | -24.34463 | 148.81180 | 40137 ft | 495 kts | 4° |
| 2026-04-26 11:59 | -24.27678 | 148.82557 | 40133 ft | 495 kts | 4° |